sensor_id;sensor_type;location;lat;lon;timestamp;pressure;altitude;pressure_sealevel;temperature;humidity
82148;BME280;71718;50.480;12.110;2024-02-23T00:02:20;95044.56;;;7.77;72.26
82148;BME280;71718;50.480;12.110;2024-02-23T00:04:46;95040.69;;;7.75;72.26
82148;BME280;71718;50.480;12.110;2024-02-23T00:07:13;95049.69;;;7.72;72.02
82148;BME280;71718;50.480;12.110;2024-02-23T00:09:39;95045.78;;;7.70;72.73
82148;BME280;71718;50.480;12.110;2024-02-23T00:12:06;95049.91;;;7.66;72.67
82148;BME280;71718;50.480;12.110;2024-02-23T00:14:32;95048.59;;;7.58;71.76
82148;BME280;71718;50.480;12.110;2024-02-23T00:16:59;95066.69;;;7.63;73.05
82148;BME280;71718;50.480;12.110;2024-02-23T00:19:25;95075.25;;;7.69;71.06
82148;BME280;71718;50.480;12.110;2024-02-23T00:21:52;95083.00;;;7.69;72.14
82148;BME280;71718;50.480;12.110;2024-02-23T00:24:18;95105.19;;;7.70;72.08
82148;BME280;71718;50.480;12.110;2024-02-23T00:26:44;95102.13;;;7.68;72.48
82148;BME280;71718;50.480;12.110;2024-02-23T00:29:11;95088.13;;;7.64;72.36
82148;BME280;71718;50.480;12.110;2024-02-23T00:31:40;95107.22;;;7.57;71.61
82148;BME280;71718;50.480;12.110;2024-02-23T00:34:07;95103.56;;;7.53;71.04
82148;BME280;71718;50.480;12.110;2024-02-23T00:36:33;95106.19;;;7.58;72.30
82148;BME280;71718;50.480;12.110;2024-02-23T00:39:00;95119.88;;;7.59;72.63
82148;BME280;71718;50.480;12.110;2024-02-23T00:41:26;95125.75;;;7.54;71.65
82148;BME280;71718;50.480;12.110;2024-02-23T00:43:52;95138.44;;;7.56;70.37
82148;BME280;71718;50.480;12.110;2024-02-23T00:46:19;95139.75;;;7.58;71.64
82148;BME280;71718;50.480;12.110;2024-02-23T00:48:45;95152.91;;;7.57;72.33
82148;BME280;71718;50.480;12.110;2024-02-23T00:51:12;95155.66;;;7.45;72.98
82148;BME280;71718;50.480;12.110;2024-02-23T00:53:38;95177.84;;;7.41;72.07
82148;BME280;71718;50.480;12.110;2024-02-23T00:56:05;95186.03;;;7.33;71.76
82148;BME280;71718;50.480;12.110;2024-02-23T00:58:32;95196.16;;;7.40;72.61
82148;BME280;71718;50.480;12.110;2024-02-23T01:00:59;95199.22;;;7.37;72.17
82148;BME280;71718;50.480;12.110;2024-02-23T01:03:25;95198.88;;;7.28;71.58
82148;BME280;71718;50.480;12.110;2024-02-23T01:05:52;95200.16;;;7.26;68.93
82148;BME280;71718;50.480;12.110;2024-02-23T01:08:19;95205.78;;;7.17;71.96
82148;BME280;71718;50.480;12.110;2024-02-23T01:10:45;95211.69;;;7.18;73.02
82148;BME280;71718;50.480;12.110;2024-02-23T01:13:12;95197.47;;;7.15;70.75
82148;BME280;71718;50.480;12.110;2024-02-23T01:15:38;95202.09;;;7.13;71.65
82148;BME280;71718;50.480;12.110;2024-02-23T01:18:05;95205.91;;;7.06;72.57
82148;BME280;71718;50.480;12.110;2024-02-23T01:20:31;95226.28;;;7.07;73.48
82148;BME280;71718;50.480;12.110;2024-02-23T01:22:58;95231.38;;;7.02;73.09
82148;BME280;71718;50.480;12.110;2024-02-23T01:25:24;95235.47;;;6.98;72.73
82148;BME280;71718;50.480;12.110;2024-02-23T01:27:50;95250.84;;;6.88;72.21
82148;BME280;71718;50.480;12.110;2024-02-23T01:30:17;95260.94;;;6.90;73.17
82148;BME280;71718;50.480;12.110;2024-02-23T01:32:45;95263.03;;;6.93;71.72
82148;BME280;71718;50.480;12.110;2024-02-23T01:35:11;95271.50;;;6.88;71.72
82148;BME280;71718;50.480;12.110;2024-02-23T01:37:38;95271.25;;;6.90;72.79
82148;BME280;71718;50.480;12.110;2024-02-23T01:40:05;95280.84;;;6.94;73.03
82148;BME280;71718;50.480;12.110;2024-02-23T01:42:31;95282.13;;;6.92;72.21
82148;BME280;71718;50.480;12.110;2024-02-23T01:44:58;95286.19;;;6.88;73.04
82148;BME280;71718;50.480;12.110;2024-02-23T01:47:24;95294.19;;;6.86;71.35
82148;BME280;71718;50.480;12.110;2024-02-23T01:49:52;95309.97;;;6.90;71.78
82148;BME280;71718;50.480;12.110;2024-02-23T01:52:21;95314.41;;;6.94;73.14
82148;BME280;71718;50.480;12.110;2024-02-23T01:54:48;95317.22;;;6.93;73.09
82148;BME280;71718;50.480;12.110;2024-02-23T01:57:15;95323.34;;;6.87;73.18
82148;BME280;71718;50.480;12.110;2024-02-23T02:00:01;95317.09;;;6.83;73.97
82148;BME280;71718;50.480;12.110;2024-02-23T02:02:28;95331.19;;;6.75;72.47
82148;BME280;71718;50.480;12.110;2024-02-23T02:04:55;95368.22;;;6.69;72.90
82148;BME280;71718;50.480;12.110;2024-02-23T02:07:21;95365.34;;;6.65;72.15
82148;BME280;71718;50.480;12.110;2024-02-23T02:09:48;95362.78;;;6.65;73.47
82148;BME280;71718;50.480;12.110;2024-02-23T02:12:28;95362.53;;;6.67;73.06
82148;BME280;71718;50.480;12.110;2024-02-23T02:14:55;95355.81;;;6.66;69.67
82148;BME280;71718;50.480;12.110;2024-02-23T02:17:21;95365.50;;;6.75;72.37
82148;BME280;71718;50.480;12.110;2024-02-23T02:19:48;95355.91;;;6.71;72.88
82148;BME280;71718;50.480;12.110;2024-02-23T02:22:14;95363.31;;;6.67;71.01
82148;BME280;71718;50.480;12.110;2024-02-23T02:24:41;95374.19;;;6.53;72.43
82148;BME280;71718;50.480;12.110;2024-02-23T02:27:07;95384.72;;;6.68;71.45
82148;BME280;71718;50.480;12.110;2024-02-23T02:29:35;95391.28;;;6.75;70.19
82148;BME280;71718;50.480;12.110;2024-02-23T02:32:01;95404.91;;;6.71;71.24
82148;BME280;71718;50.480;12.110;2024-02-23T02:34:28;95412.09;;;6.69;71.61
82148;BME280;71718;50.480;12.110;2024-02-23T02:36:55;95413.00;;;6.63;69.25
82148;BME280;71718;50.480;12.110;2024-02-23T02:39:21;95403.72;;;6.62;71.82
82148;BME280;71718;50.480;12.110;2024-02-23T02:41:50;95407.84;;;6.46;69.77
82148;BME280;71718;50.480;12.110;2024-02-23T02:44:16;95413.41;;;6.38;73.49
82148;BME280;71718;50.480;12.110;2024-02-23T02:46:43;95421.75;;;6.28;71.50
82148;BME280;71718;50.480;12.110;2024-02-23T02:49:09;95420.31;;;6.21;70.71
82148;BME280;71718;50.480;12.110;2024-02-23T02:51:35;95421.34;;;6.20;72.70
82148;BME280;71718;50.480;12.110;2024-02-23T02:54:02;95425.16;;;6.17;71.33
82148;BME280;71718;50.480;12.110;2024-02-23T02:56:28;95407.16;;;6.06;72.04
82148;BME280;71718;50.480;12.110;2024-02-23T02:58:55;95425.31;;;5.99;73.98
82148;BME280;71718;50.480;12.110;2024-02-23T03:01:22;95437.09;;;5.95;72.48
82148;BME280;71718;50.480;12.110;2024-02-23T03:03:48;95439.41;;;5.80;73.43
82148;BME280;71718;50.480;12.110;2024-02-23T03:06:14;95432.84;;;5.72;72.70
82148;BME280;71718;50.480;12.110;2024-02-23T03:08:42;95450.66;;;5.62;73.81
82148;BME280;71718;50.480;12.110;2024-02-23T03:11:09;95461.63;;;5.58;74.40
82148;BME280;71718;50.480;12.110;2024-02-23T03:13:35;95467.91;;;5.50;73.11
82148;BME280;71718;50.480;12.110;2024-02-23T03:16:01;95466.34;;;5.37;72.55
82148;BME280;71718;50.480;12.110;2024-02-23T03:18:28;95479.34;;;5.31;67.50
82148;BME280;71718;50.480;12.110;2024-02-23T03:20:54;95470.50;;;5.27;69.68
82148;BME280;71718;50.480;12.110;2024-02-23T03:23:20;95488.50;;;5.27;69.47
82148;BME280;71718;50.480;12.110;2024-02-23T03:25:47;95498.25;;;5.25;72.54
82148;BME280;71718;50.480;12.110;2024-02-23T03:28:13;95501.72;;;5.19;69.91
82148;BME280;71718;50.480;12.110;2024-02-23T03:30:40;95515.25;;;5.14;70.38
82148;BME280;71718;50.480;12.110;2024-02-23T03:33:06;95517.94;;;5.07;72.11
82148;BME280;71718;50.480;12.110;2024-02-23T03:35:32;95538.53;;;5.07;72.92
82148;BME280;71718;50.480;12.110;2024-02-23T03:37:59;95540.22;;;5.14;74.61
82148;BME280;71718;50.480;12.110;2024-02-23T03:40:25;95542.78;;;5.14;74.26
82148;BME280;71718;50.480;12.110;2024-02-23T03:42:52;95554.06;;;5.13;73.43
82148;BME280;71718;50.480;12.110;2024-02-23T03:45:18;95555.44;;;5.15;74.09
82148;BME280;71718;50.480;12.110;2024-02-23T03:47:44;95558.78;;;5.16;66.89
82148;BME280;71718;50.480;12.110;2024-02-23T03:50:11;95551.81;;;5.16;72.02
82148;BME280;71718;50.480;12.110;2024-02-23T03:52:37;95553.50;;;5.22;73.20
82148;BME280;71718;50.480;12.110;2024-02-23T03:55:04;95550.63;;;5.19;69.84
82148;BME280;71718;50.480;12.110;2024-02-23T03:57:31;95539.06;;;5.21;70.67
82148;BME280;71718;50.480;12.110;2024-02-23T03:59:57;95541.31;;;5.18;71.87
82148;BME280;71718;50.480;12.110;2024-02-23T04:02:23;95561.00;;;5.12;71.17
82148;BME280;71718;50.480;12.110;2024-02-23T04:04:50;95549.03;;;5.06;72.91
82148;BME280;71718;50.480;12.110;2024-02-23T04:07:17;95555.19;;;5.05;70.88
82148;BME280;71718;50.480;12.110;2024-02-23T04:09:43;95554.06;;;5.01;72.92
82148;BME280;71718;50.480;12.110;2024-02-23T04:12:10;95554.28;;;4.99;73.79
82148;BME280;71718;50.480;12.110;2024-02-23T04:14:36;95569.16;;;4.97;70.39
82148;BME280;71718;50.480;12.110;2024-02-23T04:17:04;95576.88;;;4.97;75.03
82148;BME280;71718;50.480;12.110;2024-02-23T04:19:30;95584.00;;;4.95;73.84
82148;BME280;71718;50.480;12.110;2024-02-23T04:21:57;95588.59;;;4.93;72.16
82148;BME280;71718;50.480;12.110;2024-02-23T04:24:23;95592.19;;;4.92;73.08
82148;BME280;71718;50.480;12.110;2024-02-23T04:26:52;95598.53;;;4.90;73.36
82148;BME280;71718;50.480;12.110;2024-02-23T04:29:18;95620.13;;;4.89;74.83
82148;BME280;71718;50.480;12.110;2024-02-23T04:31:45;95625.81;;;4.91;71.26
82148;BME280;71718;50.480;12.110;2024-02-23T04:34:11;95618.47;;;4.94;72.08
82148;BME280;71718;50.480;12.110;2024-02-23T04:36:37;95612.31;;;4.95;71.96
82148;BME280;71718;50.480;12.110;2024-02-23T04:39:04;95605.59;;;4.94;72.96
82148;BME280;71718;50.480;12.110;2024-02-23T04:41:30;95616.09;;;4.93;73.39
82148;BME280;71718;50.480;12.110;2024-02-23T04:43:57;95616.09;;;4.93;73.69
82148;BME280;71718;50.480;12.110;2024-02-23T04:46:26;95620.81;;;4.96;72.50
82148;BME280;71718;50.480;12.110;2024-02-23T04:48:53;95602.59;;;4.97;70.34
82148;BME280;71718;50.480;12.110;2024-02-23T04:51:19;95600.22;;;4.96;72.40
82148;BME280;71718;50.480;12.110;2024-02-23T04:53:45;95597.78;;;5.01;71.92
82148;BME280;71718;50.480;12.110;2024-02-23T04:56:12;95590.97;;;4.95;72.18
82148;BME280;71718;50.480;12.110;2024-02-23T04:58:38;95600.00;;;4.97;72.26
82148;BME280;71718;50.480;12.110;2024-02-23T05:01:04;95611.09;;;4.98;71.67
82148;BME280;71718;50.480;12.110;2024-02-23T05:03:31;95612.88;;;4.97;72.96
82148;BME280;71718;50.480;12.110;2024-02-23T05:05:57;95619.03;;;4.96;66.63
82148;BME280;71718;50.480;12.110;2024-02-23T05:08:24;95619.59;;;4.98;71.59
82148;BME280;71718;50.480;12.110;2024-02-23T05:10:50;95622.03;;;4.93;71.69
82148;BME280;71718;50.480;12.110;2024-02-23T05:13:17;95627.94;;;4.82;71.95
82148;BME280;71718;50.480;12.110;2024-02-23T05:15:43;95648.38;;;4.77;72.07
82148;BME280;71718;50.480;12.110;2024-02-23T05:18:09;95650.59;;;4.74;73.19
82148;BME280;71718;50.480;12.110;2024-02-23T05:20:36;95653.03;;;4.69;67.57
82148;BME280;71718;50.480;12.110;2024-02-23T05:23:03;95651.22;;;4.69;71.76
82148;BME280;71718;50.480;12.110;2024-02-23T05:25:29;95655.81;;;4.67;66.68
82148;BME280;71718;50.480;12.110;2024-02-23T05:27:56;95658.91;;;4.57;68.45
82148;BME280;71718;50.480;12.110;2024-02-23T05:30:22;95662.25;;;4.58;72.33
82148;BME280;71718;50.480;12.110;2024-02-23T05:32:48;95663.81;;;4.59;70.48
82148;BME280;71718;50.480;12.110;2024-02-23T05:35:15;95663.06;;;4.58;67.40
82148;BME280;71718;50.480;12.110;2024-02-23T05:37:42;95672.31;;;4.59;71.67
82148;BME280;71718;50.480;12.110;2024-02-23T05:40:08;95680.81;;;4.60;72.17
82148;BME280;71718;50.480;12.110;2024-02-23T05:42:39;95689.09;;;4.62;69.58
82148;BME280;71718;50.480;12.110;2024-02-23T05:45:09;95699.38;;;4.62;70.82
82148;BME280;71718;50.480;12.110;2024-02-23T05:47:39;95688.09;;;4.63;72.68
82148;BME280;71718;50.480;12.110;2024-02-23T05:50:08;95683.50;;;4.65;66.03
82148;BME280;71718;50.480;12.110;2024-02-23T05:52:35;95682.06;;;4.69;71.14
82148;BME280;71718;50.480;12.110;2024-02-23T05:55:02;95683.78;;;4.75;70.54
82148;BME280;71718;50.480;12.110;2024-02-23T05:57:29;95675.66;;;4.78;68.59
82148;BME280;71718;50.480;12.110;2024-02-23T05:59:56;95671.31;;;4.79;71.13
82148;BME280;71718;50.480;12.110;2024-02-23T06:02:25;95657.41;;;4.80;66.49
82148;BME280;71718;50.480;12.110;2024-02-23T06:04:51;95688.50;;;4.78;70.66
82148;BME280;71718;50.480;12.110;2024-02-23T06:07:18;95691.09;;;4.78;67.74
82148;BME280;71718;50.480;12.110;2024-02-23T06:09:44;95680.00;;;4.78;69.19
82148;BME280;71718;50.480;12.110;2024-02-23T06:12:11;95682.50;;;4.84;68.84
82148;BME280;71718;50.480;12.110;2024-02-23T06:14:37;95694.34;;;4.85;68.90
82148;BME280;71718;50.480;12.110;2024-02-23T06:17:04;95694.34;;;4.85;69.91
82148;BME280;71718;50.480;12.110;2024-02-23T06:19:30;95684.50;;;4.82;70.70
82148;BME280;71718;50.480;12.110;2024-02-23T06:21:57;95679.56;;;4.81;69.56
82148;BME280;71718;50.480;12.110;2024-02-23T06:24:23;95684.72;;;4.81;69.52
82148;BME280;71718;50.480;12.110;2024-02-23T06:26:49;95690.63;;;4.81;69.67
82148;BME280;71718;50.480;12.110;2024-02-23T06:29:16;95690.63;;;4.81;69.59
82148;BME280;71718;50.480;12.110;2024-02-23T06:31:42;95697.00;;;4.79;69.38
82148;BME280;71718;50.480;12.110;2024-02-23T06:34:08;95701.72;;;4.82;67.05
82148;BME280;71718;50.480;12.110;2024-02-23T06:36:35;95674.00;;;4.84;68.85
82148;BME280;71718;50.480;12.110;2024-02-23T06:39:01;95678.91;;;4.85;70.22
82148;BME280;71718;50.480;12.110;2024-02-23T06:41:28;95707.56;;;4.89;65.79
82148;BME280;71718;50.480;12.110;2024-02-23T06:43:54;95736.22;;;4.92;67.43
82148;BME280;71718;50.480;12.110;2024-02-23T06:46:21;95746.63;;;4.97;68.32
82148;BME280;71718;50.480;12.110;2024-02-23T06:48:47;95747.22;;;4.99;68.18
82148;BME280;71718;50.480;12.110;2024-02-23T06:51:13;95749.13;;;5.04;68.61
82148;BME280;71718;50.480;12.110;2024-02-23T06:53:40;95761.91;;;5.11;68.73
82148;BME280;71718;50.480;12.110;2024-02-23T06:56:06;95768.06;;;5.10;69.11
82148;BME280;71718;50.480;12.110;2024-02-23T06:58:33;95774.56;;;5.12;69.19
82148;BME280;71718;50.480;12.110;2024-02-23T07:00:59;95789.44;;;5.10;69.04
82148;BME280;71718;50.480;12.110;2024-02-23T07:03:25;95788.84;;;5.08;65.28
82148;BME280;71718;50.480;12.110;2024-02-23T07:05:52;95789.06;;;5.06;68.01
82148;BME280;71718;50.480;12.110;2024-02-23T07:08:20;95800.22;;;5.00;67.06
82148;BME280;71718;50.480;12.110;2024-02-23T07:10:47;95821.16;;;5.04;67.77
82148;BME280;71718;50.480;12.110;2024-02-23T07:13:13;95820.38;;;5.03;67.63
82148;BME280;71718;50.480;12.110;2024-02-23T07:15:40;95817.00;;;5.03;66.21
82148;BME280;71718;50.480;12.110;2024-02-23T07:18:06;95816.09;;;4.97;63.85
82148;BME280;71718;50.480;12.110;2024-02-23T07:20:33;95841.66;;;4.92;65.78
82148;BME280;71718;50.480;12.110;2024-02-23T07:22:59;95846.66;;;4.87;67.08
82148;BME280;71718;50.480;12.110;2024-02-23T07:25:25;95835.09;;;4.78;67.97
82148;BME280;71718;50.480;12.110;2024-02-23T07:27:52;95824.72;;;4.85;67.96
82148;BME280;71718;50.480;12.110;2024-02-23T07:30:18;95814.28;;;4.80;64.14
82148;BME280;71718;50.480;12.110;2024-02-23T07:32:45;95814.81;;;4.88;66.50
82148;BME280;71718;50.480;12.110;2024-02-23T07:35:16;95814.22;;;4.86;65.83
82148;BME280;71718;50.480;12.110;2024-02-23T07:37:42;95838.16;;;4.87;67.08
82148;BME280;71718;50.480;12.110;2024-02-23T07:40:09;95847.09;;;4.84;66.60
82148;BME280;71718;50.480;12.110;2024-02-23T07:42:35;95846.88;;;4.86;65.99
82148;BME280;71718;50.480;12.110;2024-02-23T07:45:06;95839.59;;;4.83;68.14
82148;BME280;71718;50.480;12.110;2024-02-23T07:47:33;95844.28;;;4.86;67.21
82148;BME280;71718;50.480;12.110;2024-02-23T07:49:59;95848.00;;;4.90;65.62
82148;BME280;71718;50.480;12.110;2024-02-23T07:52:26;95834.25;;;4.84;62.86
82148;BME280;71718;50.480;12.110;2024-02-23T07:54:52;95835.00;;;4.85;64.03
82148;BME280;71718;50.480;12.110;2024-02-23T07:57:19;95837.94;;;4.88;62.70
82148;BME280;71718;50.480;12.110;2024-02-23T07:59:46;95838.75;;;4.89;63.17
82148;BME280;71718;50.480;12.110;2024-02-23T08:02:14;95836.72;;;4.91;63.95
82148;BME280;71718;50.480;12.110;2024-02-23T08:04:41;95836.16;;;4.89;63.84
82148;BME280;71718;50.480;12.110;2024-02-23T08:07:07;95843.44;;;4.92;65.04
82148;BME280;71718;50.480;12.110;2024-02-23T08:09:34;95830.94;;;4.95;66.78
82148;BME280;71718;50.480;12.110;2024-02-23T08:12:00;95843.69;;;5.09;66.22
82148;BME280;71718;50.480;12.110;2024-02-23T08:14:27;95845.38;;;5.15;64.96
82148;BME280;71718;50.480;12.110;2024-02-23T08:16:53;95851.81;;;5.24;65.23
82148;BME280;71718;50.480;12.110;2024-02-23T08:19:20;95855.72;;;5.26;63.64
82148;BME280;71718;50.480;12.110;2024-02-23T08:21:46;95861.00;;;5.31;65.52
82148;BME280;71718;50.480;12.110;2024-02-23T08:24:12;95864.09;;;5.40;64.51
82148;BME280;71718;50.480;12.110;2024-02-23T08:26:39;95875.31;;;5.45;64.29
82148;BME280;71718;50.480;12.110;2024-02-23T08:29:05;95884.38;;;5.48;64.46
82148;BME280;71718;50.480;12.110;2024-02-23T08:31:32;95887.81;;;5.42;62.01
82148;BME280;71718;50.480;12.110;2024-02-23T08:33:58;95892.75;;;5.43;63.22
82148;BME280;71718;50.480;12.110;2024-02-23T08:36:25;95893.56;;;5.44;63.51
82148;BME280;71718;50.480;12.110;2024-02-23T08:38:51;95901.41;;;5.49;64.52
82148;BME280;71718;50.480;12.110;2024-02-23T08:41:17;95894.03;;;5.53;64.19
82148;BME280;71718;50.480;12.110;2024-02-23T08:43:44;95894.81;;;5.53;63.74
82148;BME280;71718;50.480;12.110;2024-02-23T08:46:10;95894.41;;;5.56;64.24
82148;BME280;71718;50.480;12.110;2024-02-23T08:48:36;95890.53;;;5.65;64.05
82148;BME280;71718;50.480;12.110;2024-02-23T08:51:03;95889.56;;;5.78;62.24
82148;BME280;71718;50.480;12.110;2024-02-23T08:53:30;95883.28;;;5.74;60.54
82148;BME280;71718;50.480;12.110;2024-02-23T08:55:56;95873.22;;;5.72;62.63
82148;BME280;71718;50.480;12.110;2024-02-23T08:58:23;95854.53;;;5.77;61.07
82148;BME280;71718;50.480;12.110;2024-02-23T09:00:49;95850.19;;;5.59;62.55
82148;BME280;71718;50.480;12.110;2024-02-23T09:03:15;95858.03;;;5.64;62.52
82148;BME280;71718;50.480;12.110;2024-02-23T09:05:42;95863.06;;;5.59;60.95
82148;BME280;71718;50.480;12.110;2024-02-23T09:08:10;95848.09;;;5.68;61.28
82148;BME280;71718;50.480;12.110;2024-02-23T09:10:36;95851.59;;;5.73;62.46
82148;BME280;71718;50.480;12.110;2024-02-23T09:13:02;95859.88;;;5.75;60.24
82148;BME280;71718;50.480;12.110;2024-02-23T09:15:29;95869.25;;;5.88;61.79
82148;BME280;71718;50.480;12.110;2024-02-23T09:17:55;95866.56;;;5.95;57.56
82148;BME280;71718;50.480;12.110;2024-02-23T09:20:22;95872.50;;;5.95;57.77
82148;BME280;71718;50.480;12.110;2024-02-23T09:22:48;95872.50;;;5.95;60.01
82148;BME280;71718;50.480;12.110;2024-02-23T09:25:14;95873.63;;;5.99;59.78
82148;BME280;71718;50.480;12.110;2024-02-23T09:27:41;95887.63;;;6.21;59.60
82148;BME280;71718;50.480;12.110;2024-02-23T09:30:08;95888.72;;;6.14;60.35
82148;BME280;71718;50.480;12.110;2024-02-23T09:32:34;95900.88;;;6.07;60.58
82148;BME280;71718;50.480;12.110;2024-02-23T09:35:01;95904.66;;;6.04;60.16
82148;BME280;71718;50.480;12.110;2024-02-23T09:37:27;95893.88;;;6.14;59.15
82148;BME280;71718;50.480;12.110;2024-02-23T09:39:54;95892.00;;;6.32;59.62
82148;BME280;71718;50.480;12.110;2024-02-23T09:42:22;95892.94;;;6.50;59.67
82148;BME280;71718;50.480;12.110;2024-02-23T09:44:59;95897.28;;;6.38;59.07
82148;BME280;71718;50.480;12.110;2024-02-23T09:47:29;95898.53;;;6.47;58.53
82148;BME280;71718;50.480;12.110;2024-02-23T09:49:56;95894.41;;;6.57;57.95
82148;BME280;71718;50.480;12.110;2024-02-23T09:52:22;95896.44;;;6.55;58.23
82148;BME280;71718;50.480;12.110;2024-02-23T09:54:49;95897.09;;;6.62;58.25
82148;BME280;71718;50.480;12.110;2024-02-23T09:57:16;95892.16;;;6.72;56.33
82148;BME280;71718;50.480;12.110;2024-02-23T09:59:42;95897.22;;;6.79;57.44
82148;BME280;71718;50.480;12.110;2024-02-23T10:02:10;95895.97;;;6.82;56.03
82148;BME280;71718;50.480;12.110;2024-02-23T10:04:42;95911.81;;;6.85;51.58
82148;BME280;71718;50.480;12.110;2024-02-23T10:07:09;95926.28;;;6.74;57.67
82148;BME280;71718;50.480;12.110;2024-02-23T10:09:36;95920.78;;;6.71;53.10
82148;BME280;71718;50.480;12.110;2024-02-23T10:12:03;95932.00;;;6.65;58.15
82148;BME280;71718;50.480;12.110;2024-02-23T10:14:30;95940.06;;;6.68;56.87
82148;BME280;71718;50.480;12.110;2024-02-23T10:16:56;95945.69;;;6.65;55.84
82148;BME280;71718;50.480;12.110;2024-02-23T10:19:22;95925.34;;;6.57;53.25
82148;BME280;71718;50.480;12.110;2024-02-23T10:21:49;95934.66;;;6.58;55.93
82148;BME280;71718;50.480;12.110;2024-02-23T10:24:16;95944.06;;;6.53;53.35
82148;BME280;71718;50.480;12.110;2024-02-23T10:26:42;95952.13;;;6.56;59.06
82148;BME280;71718;50.480;12.110;2024-02-23T10:29:09;95952.13;;;6.45;56.25
82148;BME280;71718;50.480;12.110;2024-02-23T10:31:38;95953.34;;;6.42;58.47
82148;BME280;71718;50.480;12.110;2024-02-23T10:34:07;95963.66;;;6.42;58.04
82148;BME280;71718;50.480;12.110;2024-02-23T10:36:34;95963.91;;;6.52;57.23
82148;BME280;71718;50.480;12.110;2024-02-23T10:39:03;95962.69;;;6.66;55.01
82148;BME280;71718;50.480;12.110;2024-02-23T10:41:31;95961.16;;;6.65;58.62
82148;BME280;71718;50.480;12.110;2024-02-23T10:44:00;95964.41;;;6.72;57.76
82148;BME280;71718;50.480;12.110;2024-02-23T10:46:27;95969.06;;;6.52;57.48
82148;BME280;71718;50.480;12.110;2024-02-23T10:48:54;95957.94;;;6.40;57.79
82148;BME280;71718;50.480;12.110;2024-02-23T10:51:22;95950.59;;;6.55;59.84
82148;BME280;71718;50.480;12.110;2024-02-23T10:53:48;95959.13;;;6.67;55.04
82148;BME280;71718;50.480;12.110;2024-02-23T10:56:15;95951.88;;;6.76;58.71
82148;BME280;71718;50.480;12.110;2024-02-23T10:58:42;95962.06;;;6.83;58.13
82148;BME280;71718;50.480;12.110;2024-02-23T11:01:09;95960.84;;;6.85;56.41
82148;BME280;71718;50.480;12.110;2024-02-23T11:03:37;95973.50;;;6.75;57.81
82148;BME280;71718;50.480;12.110;2024-02-23T11:06:07;95960.13;;;6.66;58.60
82148;BME280;71718;50.480;12.110;2024-02-23T11:08:34;95952.06;;;6.63;59.32
82148;BME280;71718;50.480;12.110;2024-02-23T11:11:08;95955.97;;;6.54;57.41
82148;BME280;71718;50.480;12.110;2024-02-23T11:13:39;95959.09;;;6.56;57.78
82148;BME280;71718;50.480;12.110;2024-02-23T11:16:07;95946.53;;;6.48;59.05
82148;BME280;71718;50.480;12.110;2024-02-23T11:18:34;95947.31;;;6.48;58.64
82148;BME280;71718;50.480;12.110;2024-02-23T11:21:03;95945.94;;;6.46;58.38
82148;BME280;71718;50.480;12.110;2024-02-23T11:26:06;95958.09;;;6.45;57.63
82148;BME280;71718;50.480;12.110;2024-02-23T11:28:42;95956.38;;;6.39;58.25
82148;BME280;71718;50.480;12.110;2024-02-23T11:31:15;95957.94;;;6.40;58.11
82148;BME280;71718;50.480;12.110;2024-02-23T11:33:52;95955.00;;;6.37;59.65
82148;BME280;71718;50.480;12.110;2024-02-23T11:36:38;95958.47;;;6.30;58.79
82148;BME280;71718;50.480;12.110;2024-02-23T11:39:05;95961.41;;;6.34;60.17
82148;BME280;71718;50.480;12.110;2024-02-23T11:41:31;95963.09;;;6.40;54.26
82148;BME280;71718;50.480;12.110;2024-02-23T11:43:57;95959.75;;;6.40;56.61
82148;BME280;71718;50.480;12.110;2024-02-23T11:46:24;95954.47;;;6.46;56.50
82148;BME280;71718;50.480;12.110;2024-02-23T11:48:51;95957.88;;;6.58;57.07
82148;BME280;71718;50.480;12.110;2024-02-23T11:51:18;95956.91;;;6.71;56.19
82148;BME280;71718;50.480;12.110;2024-02-23T11:53:44;95957.47;;;6.85;55.30
82148;BME280;71718;50.480;12.110;2024-02-23T11:56:11;95955.00;;;6.90;56.50
82148;BME280;71718;50.480;12.110;2024-02-23T11:58:37;95953.31;;;6.84;56.04
82148;BME280;71718;50.480;12.110;2024-02-23T12:01:03;95958.34;;;6.67;54.77
82148;BME280;71718;50.480;12.110;2024-02-23T12:03:31;95949.34;;;6.58;58.00
82148;BME280;71718;50.480;12.110;2024-02-23T12:05:57;95946.19;;;6.56;53.91
82148;BME280;71718;50.480;12.110;2024-02-23T12:08:25;95952.94;;;6.57;56.67
82148;BME280;71718;50.480;12.110;2024-02-23T12:10:54;95959.22;;;6.49;52.43
82148;BME280;71718;50.480;12.110;2024-02-23T12:13:21;95955.69;;;6.32;54.36
82148;BME280;71718;50.480;12.110;2024-02-23T12:15:47;95949.34;;;6.16;53.57
82148;BME280;71718;50.480;12.110;2024-02-23T12:18:14;95957.53;;;6.25;55.42
82148;BME280;71718;50.480;12.110;2024-02-23T12:20:40;95956.38;;;6.39;55.42
82148;BME280;71718;50.480;12.110;2024-02-23T12:23:07;95958.84;;;6.46;57.18
82148;BME280;71718;50.480;12.110;2024-02-23T12:25:33;95949.81;;;6.55;55.68
82148;BME280;71718;50.480;12.110;2024-02-23T12:28:00;95947.22;;;6.66;58.10
82148;BME280;71718;50.480;12.110;2024-02-23T12:30:26;95948.81;;;6.67;52.86
82148;BME280;71718;50.480;12.110;2024-02-23T12:33:03;95961.38;;;6.64;56.79
82148;BME280;71718;50.480;12.110;2024-02-23T12:35:29;95952.00;;;6.51;55.85
82148;BME280;71718;50.480;12.110;2024-02-23T12:37:56;95954.84;;;6.50;55.80
82148;BME280;71718;50.480;12.110;2024-02-23T12:40:22;95961.34;;;6.52;57.31
82148;BME280;71718;50.480;12.110;2024-02-23T12:42:49;95962.59;;;6.61;56.95
82148;BME280;71718;50.480;12.110;2024-02-23T12:45:15;95958.13;;;6.68;56.22
82148;BME280;71718;50.480;12.110;2024-02-23T12:47:41;95957.53;;;6.66;55.20
82148;BME280;71718;50.480;12.110;2024-02-23T12:50:08;95950.59;;;6.67;56.33
82148;BME280;71718;50.480;12.110;2024-02-23T12:52:34;95942.19;;;6.60;54.62
82148;BME280;71718;50.480;12.110;2024-02-23T12:55:01;95956.75;;;6.54;57.43
82148;BME280;71718;50.480;12.110;2024-02-23T12:57:27;95956.31;;;6.57;56.48
82148;BME280;71718;50.480;12.110;2024-02-23T12:59:53;95947.53;;;6.47;56.95
82148;BME280;71718;50.480;12.110;2024-02-23T13:02:20;95953.06;;;6.50;55.75